Dupuyer, Montana
Current Conditions -  °F | °C
As of 11:56 PM on Thursday 18 Dec 2014 (Local Time) from KCTB Reporting Station
Clear Clear  
Wind Chill: 23°   Ceiling: Unl
Heat Index: 33°   Visibility: 10mi
Dew Point: 25°   Wind: 16mph
Humidity: 72%   Direction: 260°W
Pressure: 29.86"   Gusts: NA
Location:  48.19°N, 112.5°W
Report Text: KCTB 190656Z AUTO 26014KT 10SM CLR 01/M04 A2986 RMK AO2 SLP134 T00061039 400391106
Loading
Personal Weather Stations






























Interactive Weather Map New forecast layout! Learn more

10-Day Weather Forecast

Advertisements
Track Severe Weather on mobile